Time;durP1;ratioP1;P1;durP2;ratioP2;P2;SDS_P1;SDS_P2;PMS_P1;PMS_P2;Temp;Humidity;BMP_temperature;BMP_pressure;BME280_temperature;BME280_humidity;BME280_pressure;Samples;Min_cycle;Max_cycle;Signal;HPM_P1;HPM_P2
2022/10/26 00:01:44;;;;;;;7.43;5.20;;;9.40;1.00;;;;;;5037431;28;20237;-79
2022/10/26 00:04:09;;;;;;;10.30;6.30;;;9.20;99.90;;;;;;5035780;28;20179;-79
2022/10/26 00:06:35;;;;;;;6.83;5.97;;;8.90;1.00;;;;;;5037147;28;20206;-78
2022/10/26 00:09:00;;;;;;;7.63;6.03;;;8.60;1.00;;;;;;5037000;28;20197;-79
2022/10/26 00:11:26;;;;;;;8.63;5.47;;;9.40;1.00;;;;;;5038325;28;20955;-80
2022/10/26 00:13:52;;;;;;;7.87;5.33;;;8.40;1.00;;;;;;5035678;28;20203;-79
2022/10/26 00:16:24;;;;;;;7.97;5.40;;;9.00;1.00;;;;;;5038266;28;20721;-79
2022/10/26 00:18:50;;;;;;;6.97;5.53;;;8.40;1.00;;;;;;5036689;28;20883;-79
2022/10/26 00:21:16;;;;;;;6.63;5.60;;;8.40;99.90;;;;;;5035073;28;20198;-78
2022/10/26 00:23:42;;;;;;;8.10;5.77;;;8.90;1.00;;;;;;5036263;28;20191;-79
2022/10/26 00:26:09;;;;;;;7.17;5.23;;;9.10;99.90;;;;;;5036484;28;20667;-80
2022/10/26 00:28:35;;;;;;;6.53;5.17;;;8.40;99.90;;;;;;5036111;28;20301;-79
2022/10/26 00:31:03;;;;;;;7.30;5.43;;;8.30;99.90;;;;;;5036237;28;20306;-79
2022/10/26 00:33:29;;;;;;;7.97;5.17;;;8.40;99.90;;;;;;5034531;28;21132;-79
2022/10/26 00:35:55;;;;;;;6.47;5.00;;;8.40;1.00;;;;;;5051781;28;20205;-79
2022/10/26 00:38:20;;;;;;;6.40;4.67;;;8.40;94.80;;;;;;5037056;28;20186;-79
2022/10/26 00:40:46;;;;;;;7.83;5.20;;;9.40;1.00;;;;;;5038619;28;20178;-79
2022/10/26 00:43:36;;;;;;;6.93;4.90;;;8.40;1.00;;;;;;5033553;28;20186;-79
2022/10/26 00:46:06;;;;;;;5.60;4.80;;;8.60;1.00;;;;;;5026820;28;20227;-79
2022/10/26 00:48:39;;;;;;;8.20;4.63;;;8.60;99.90;;;;;;5037208;28;20209;-80
2022/10/26 00:51:10;;;;;;;6.60;4.60;;;8.80;1.00;;;;;;5037374;28;20171;-78
2022/10/26 00:53:37;;;;;;;7.20;4.80;;;8.50;1.00;;;;;;5038041;28;20218;-80
2022/10/26 00:56:03;;;;;;;7.13;4.77;;;9.40;1.00;;;;;;5038016;28;20203;-79
2022/10/26 00:58:30;;;;;;;8.60;4.67;;;8.70;1.00;;;;;;5037056;28;20187;-79
2022/10/26 01:00:56;;;;;;;5.90;5.03;;;8.70;1.00;;;;;;5037617;28;20273;-78
2022/10/26 01:03:24;;;;;;;9.23;5.07;;;9.80;99.90;;;;;;5036687;28;20739;-78
2022/10/26 01:05:52;;;;;;;7.50;5.30;;;9.20;1.00;;;;;;5035781;28;20210;-79
2022/10/26 01:08:18;;;;;;;5.93;4.67;;;8.50;99.90;;;;;;5034054;28;20217;-79
2022/10/26 01:10:51;;;;;;;5.97;4.60;;;8.50;99.90;;;;;;5036864;28;20182;-79
2022/10/26 01:13:17;;;;;;;8.03;4.60;;;8.40;1.00;;;;;;5036406;28;20674;-79
2022/10/26 01:16:02;;;;;;;5.53;4.33;;;8.70;99.90;;;;;;5036391;28;20267;-79
2022/10/26 01:18:30;;;;;;;5.33;4.57;;;8.40;1.00;;;;;;5036349;28;20836;-79
2022/10/26 01:21:36;;;;;;;7.03;5.03;;;8.80;99.90;;;;;;5034313;28;20194;-78
2022/10/26 01:24:25;;;;;;;6.27;4.83;;;8.20;1.00;;;;;;5036387;28;20643;-78
2022/10/26 01:27:03;;;;;;;6.23;4.60;;;8.40;1.00;;;;;;5034356;28;20198;-78
2022/10/26 01:30:10;;;;;;;7.53;5.00;;;8.10;1.00;;;;;;5035575;28;20235;-80
2022/10/26 01:33:00;;;;;;;5.33;4.40;;;8.10;1.00;;;;;;5035300;28;20206;-80
2022/10/26 01:35:38;;;;;;;6.63;4.80;;;8.10;99.90;;;;;;5036146;28;20281;-79
2022/10/26 01:38:15;;;;;;;4.53;4.13;;;8.20;99.90;;;;;;5035335;28;20186;-79
2022/10/26 01:41:05;;;;;;;7.37;4.30;;;8.20;99.90;;;;;;5034262;28;20178;-78
2022/10/26 01:43:35;;;;;;;6.90;4.30;;;8.20;99.90;;;;;;5034732;28;20661;-79
2022/10/26 01:46:03;;;;;;;7.43;4.17;;;8.20;1.00;;;;;;5036606;28;20681;-79
2022/10/26 01:48:29;;;;;;;5.00;4.40;;;8.30;99.90;;;;;;5034841;28;20245;-78
2022/10/26 01:50:57;;;;;;;6.13;4.40;;;8.30;99.90;;;;;;5018745;28;20178;-79
2022/10/26 01:53:25;;;;;;;5.77;4.60;;;8.30;99.90;;;;;;5032479;28;20573;-80
2022/10/26 01:55:53;;;;;;;9.03;4.47;;;8.80;99.90;;;;;;5048759;28;20206;-79
2022/10/26 01:58:48;;;;;;;6.70;4.40;;;9.10;99.90;;;;;;5032566;28;20286;-79
2022/10/26 02:01:45;;;;;;;7.63;5.23;;;8.40;99.90;;;;;;5033650;28;20293;-78
2022/10/26 02:04:29;;;;;;;7.00;4.50;;;8.50;72.90;;;;;;5038632;28;20190;-80
2022/10/26 02:07:04;;;;;;;5.97;4.57;;;8.50;90.10;;;;;;5034871;28;20178;-80
2022/10/26 02:09:44;;;;;;;7.47;4.50;;;8.50;99.90;;;;;;5035553;28;20258;-78
2022/10/26 02:12:20;;;;;;;5.60;4.20;;;8.60;99.90;;;;;;5034462;28;20712;-79
2022/10/26 02:14:49;;;;;;;5.50;4.17;;;8.70;48.80;;;;;;5035973;28;20583;-79
2022/10/26 02:17:21;;;;;;;5.30;4.13;;;8.90;1.00;;;;;;5033699;28;20191;-79
2022/10/26 02:19:53;;;;;;;5.77;4.20;;;8.60;99.90;;;;;;5036241;28;20183;-81
2022/10/26 02:22:33;;;;;;;4.53;4.10;;;8.60;99.90;;;;;;5035684;28;20814;-79
2022/10/26 02:25:04;;;;;;;5.67;3.90;;;8.70;99.90;;;;;;5034330;28;20199;-79
2022/10/26 02:27:35;;;;;;;6.07;4.03;;;8.80;99.90;;;;;;5035014;28;20605;-78
2022/10/26 02:30:02;;;;;;;4.97;4.17;;;9.70;1.00;;;;;;5050960;28;20198;-79
2022/10/26 02:32:33;;;;;;;9.43;5.03;;;8.80;1.00;;;;;;5035634;28;20707;-79
2022/10/26 02:35:02;;;;;;;6.23;4.37;;;9.90;99.90;;;;;;5035266;28;20210;-79
2022/10/26 02:37:29;;;;;;;7.63;4.23;;;9.00;1.00;;;;;;5036290;28;20191;-79
2022/10/26 02:39:56;;;;;;;7.87;4.20;;;8.90;1.00;;;;;;5033215;28;20186;-78
2022/10/26 02:42:22;;;;;;;6.73;4.10;;;9.30;99.90;;;;;;5034559;28;20197;-78
2022/10/26 02:44:56;;;;;;;5.53;3.93;;;9.20;99.90;;;;;;5035262;28;20206;-78
2022/10/26 02:47:23;;;;;;;5.03;4.13;;;9.60;99.90;;;;;;5035037;28;20207;-79
2022/10/26 02:49:49;;;;;;;6.57;4.53;;;9.30;1.00;;;;;;5036522;28;20186;-79
2022/10/26 02:52:33;;;;;;;6.87;4.40;;;9.10;99.90;;;;;;5032712;28;20190;-79
2022/10/26 02:55:04;;;;;;;8.50;4.43;;;8.40;1.00;;;;;;5034898;28;20297;-79
2022/10/26 02:57:39;;;;;;;7.33;4.40;;;8.30;1.00;;;;;;5033523;28;20198;-78
2022/10/26 03:00:13;;;;;;;5.47;3.97;;;8.30;1.00;;;;;;5034797;28;20178;-79
2022/10/26 03:02:40;;;;;;;7.80;4.70;;;8.20;1.00;;;;;;5034922;28;20201;-80
2022/10/26 03:05:15;;;;;;;5.53;4.37;;;8.30;1.00;;;;;;5037932;28;20233;-79
2022/10/26 03:07:41;;;;;;;5.43;4.10;;;8.30;1.00;;;;;;5039741;28;20205;-80
2022/10/26 03:10:07;;;;;;;5.53;3.80;;;8.20;1.00;;;;;;5039048;28;20654;-78
2022/10/26 03:12:32;;;;;;;7.60;4.63;;;8.10;1.00;;;;;;5036230;28;20213;-78
2022/10/26 03:14:58;;;;;;;5.97;4.20;;;8.70;1.00;;;;;;5035224;28;20253;-78
2022/10/26 03:17:24;;;;;;;6.63;3.90;;;8.10;1.00;;;;;;5039165;28;20193;-80
2022/10/26 03:19:49;;;;;;;5.13;3.60;;;8.30;1.00;;;;;;5037652;28;20656;-81
2022/10/26 03:22:15;;;;;;;6.80;4.40;;;8.40;1.00;;;;;;5038343;28;20182;-78
2022/10/26 03:24:40;;;;;;;4.70;4.00;;;8.80;1.00;;;;;;5039098;28;20198;-80
2022/10/26 03:27:06;;;;;;;4.87;4.37;;;9.30;1.00;;;;;;5036450;28;20206;-79
2022/10/26 03:29:31;;;;;;;6.07;4.47;;;8.60;1.00;;;;;;5038242;28;20197;-78
2022/10/26 03:31:57;;;;;;;4.27;3.87;;;8.40;1.00;;;;;;5039676;28;20187;-80
2022/10/26 03:34:22;;;;;;;5.60;4.10;;;9.40;1.00;;;;;;5037529;28;20300;-81
2022/10/26 03:36:48;;;;;;;5.17;4.33;;;9.00;1.00;;;;;;5035909;28;20539;-80
2022/10/26 03:39:14;;;;;;;5.97;4.40;;;8.80;1.00;;;;;;5037921;28;20191;-78
2022/10/26 03:41:39;;;;;;;7.90;4.30;;;9.50;1.00;;;;;;5037977;28;20202;-81
2022/10/26 03:44:05;;;;;;;7.43;4.30;;;8.50;99.90;;;;;;5035672;28;20194;-80
2022/10/26 03:46:31;;;;;;;6.90;4.70;;;9.60;99.90;;;;;;5038752;28;20650;-80
2022/10/26 03:48:57;;;;;;;5.50;4.20;;;8.50;99.90;;;;;;5036846;28;20206;-80
2022/10/26 03:51:22;;;;;;;7.40;4.97;;;8.50;99.90;;;;;;5037810;28;20224;-80
2022/10/26 03:53:48;;;;;;;10.43;4.50;;;8.50;1.00;;;;;;5035812;28;20661;-80
2022/10/26 03:56:13;;;;;;;6.00;4.33;;;8.50;1.00;;;;;;5037787;28;20210;-82
2022/10/26 03:58:39;;;;;;;6.43;4.37;;;8.60;99.90;;;;;;5036547;28;20305;-80
2022/10/26 04:01:04;;;;;;;6.03;4.00;;;8.70;99.90;;;;;;5035491;28;20192;-79
2022/10/26 04:03:30;;;;;;;4.30;3.60;;;8.40;99.90;;;;;;5036088;28;20670;-79
2022/10/26 04:05:59;;;;;;;5.77;4.17;;;9.40;99.90;;;;;;5034745;28;20221;-78
2022/10/26 04:08:25;;;;;;;6.53;4.17;;;8.50;28.30;;;;;;5035528;28;20202;-80
2022/10/26 04:10:51;;;;;;;4.37;3.93;;;8.30;1.00;;;;;;5037842;28;20197;-79
2022/10/26 04:13:16;;;;;;;4.90;4.40;;;9.80;99.90;;;;;;5034470;28;20193;-78
2022/10/26 04:15:42;;;;;;;7.03;4.60;;;8.50;99.90;;;;;;5036504;28;20249;-80
2022/10/26 04:18:08;;;;;;;5.50;4.00;;;8.30;99.90;;;;;;5036805;28;20671;-80
2022/10/26 04:20:35;;;;;;;4.93;4.07;;;8.30;99.90;;;;;;5038343;28;20264;-80
2022/10/26 04:23:05;;;;;;;6.33;4.57;;;8.60;99.90;;;;;;5020565;28;20552;-79
2022/10/26 04:25:32;;;;;;;5.40;4.57;;;9.00;99.90;;;;;;5034615;28;20292;-80
2022/10/26 04:27:58;;;;;;;7.37;4.20;;;8.50;99.90;;;;;;5037045;28;20622;-78
2022/10/26 04:30:24;;;;;;;5.27;3.90;;;8.10;68.90;;;;;;5037166;28;20183;-79
2022/10/26 04:32:50;;;;;;;5.67;4.50;;;8.70;1.00;;;;;;5036379;28;20555;-79
2022/10/26 04:35:16;;;;;;;4.53;4.00;;;9.00;1.00;;;;;;5036576;28;20209;-79
2022/10/26 04:37:41;;;;;;;4.30;3.90;;;8.50;1.00;;;;;;5037006;28;20190;-80
2022/10/26 04:40:07;;;;;;;4.33;3.87;;;9.00;99.90;;;;;;5038044;28;20197;-80
2022/10/26 04:42:43;;;;;;;5.53;3.90;;;8.10;34.70;;;;;;5051720;28;20191;-78
2022/10/26 04:45:09;;;;;;;7.60;4.47;;;8.00;1.00;;;;;;5035647;28;20210;-78
2022/10/26 04:47:35;;;;;;;6.67;4.40;;;8.00;1.00;;;;;;5036168;28;20207;-79
2022/10/26 04:50:01;;;;;;;4.70;3.63;;;8.00;99.90;;;;;;5034891;28;20190;-78
2022/10/26 04:52:26;;;;;;;6.07;4.00;;;8.00;1.00;;;;;;5036702;28;20562;-80
2022/10/26 04:54:52;;;;;;;5.30;4.00;;;8.20;1.00;;;;;;5034254;28;20264;-79
2022/10/26 04:57:18;;;;;;;7.63;4.40;;;8.60;1.00;;;;;;5034707;28;20697;-80
2022/10/26 04:59:43;;;;;;;6.53;4.17;;;8.50;1.00;;;;;;5034504;28;20183;-79
2022/10/26 05:02:09;;;;;;;7.93;5.00;;;8.50;99.90;;;;;;5035106;28;20276;-79
2022/10/26 05:04:35;;;;;;;7.43;5.07;;;8.00;68.70;;;;;;5036745;28;20230;-78
2022/10/26 05:07:00;;;;;;;5.67;4.07;;;8.40;1.00;;;;;;5035041;28;20196;-79
2022/10/26 05:09:26;;;;;;;7.33;4.57;;;8.10;1.00;;;;;;5035710;28;20217;-79
2022/10/26 05:11:51;;;;;;;5.77;4.13;;;8.00;99.90;;;;;;5036564;28;20657;-79
2022/10/26 05:14:17;;;;;;;7.33;4.93;;;8.00;1.00;;;;;;5037064;28;20187;-79
2022/10/26 05:16:43;;;;;;;5.50;4.80;;;8.00;99.90;;;;;;5036567;28;20190;-78
2022/10/26 05:19:09;;;;;;;6.07;5.17;;;8.30;99.90;;;;;;5037946;28;20191;-80
2022/10/26 05:21:35;;;;;;;6.87;4.90;;;8.90;99.90;;;;;;5035137;28;20194;-79
2022/10/26 05:24:00;;;;;;;6.80;4.97;;;8.00;99.90;;;;;;5035314;28;20178;-79
2022/10/26 05:26:26;;;;;;;7.67;5.70;;;8.30;1.00;;;;;;5035283;28;20210;-79
2022/10/26 05:28:52;;;;;;;6.63;5.43;;;9.10;1.00;;;;;;5035165;28;20328;-78
2022/10/26 05:31:18;;;;;;;8.43;5.90;;;8.00;1.00;;;;;;5037414;28;20257;-80
2022/10/26 05:33:47;;;;;;;7.40;6.03;;;9.10;99.90;;;;;;5037261;28;20204;-79
2022/10/26 05:36:12;;;;;;;10.63;6.83;;;8.50;99.90;;;;;;5038017;28;20206;-79
2022/10/26 05:38:38;;;;;;;7.97;6.33;;;8.10;99.90;;;;;;5034749;28;20189;-78
2022/10/26 05:41:04;;;;;;;8.30;5.97;;;7.90;1.00;;;;;;5037266;28;20190;-79
2022/10/26 05:43:29;;;;;;;9.00;5.90;;;7.90;1.00;;;;;;5036233;28;20573;-80
2022/10/26 05:45:55;;;;;;;8.83;6.23;;;8.00;1.00;;;;;;5018150;28;20694;-81
2022/10/26 05:48:21;;;;;;;10.83;6.47;;;8.10;84.70;;;;;;5035065;28;20202;-77
2022/10/26 05:50:46;;;;;;;11.17;7.20;;;8.00;99.90;;;;;;5036267;28;20201;-77
2022/10/26 05:53:12;;;;;;;8.20;5.83;;;8.50;99.90;;;;;;5034293;28;20243;-79
2022/10/26 05:55:38;;;;;;;9.53;6.80;;;8.00;99.90;;;;;;5035127;28;21266;-79
2022/10/26 05:58:09;;;;;;;7.57;6.10;;;7.90;99.90;;;;;;5036539;28;20193;-81
2022/10/26 06:00:39;;;;;;;9.23;6.63;;;7.90;99.90;;;;;;5018640;28;20661;-78
2022/10/26 06:03:27;;;;;;;11.93;6.63;;;7.90;99.90;;;;;;5035348;28;20199;-81
2022/10/26 06:05:55;;;;;;;8.33;6.30;;;7.90;99.90;;;;;;5035820;28;20195;-81
2022/10/26 06:08:24;;;;;;;9.60;7.03;;;7.80;1.00;;;;;;5036240;28;20275;-79
2022/10/26 06:10:50;;;;;;;8.07;6.97;;;7.90;99.90;;;;;;5034982;28;20188;-78
2022/10/26 06:13:16;;;;;;;7.80;6.20;;;7.90;99.90;;;;;;5034150;28;20208;-81
2022/10/26 06:16:06;;;;;;;7.73;5.90;;;7.90;99.90;;;;;;5033884;28;20211;-80
2022/10/26 06:18:52;;;;;;;8.70;7.80;;;8.00;99.90;;;;;;5034447;28;20201;-78
2022/10/26 06:21:30;;;;;;;11.10;7.33;;;7.90;99.90;;;;;;5035757;28;20186;-82
2022/10/26 06:24:18;;;;;;;11.03;7.97;;;7.90;99.90;;;;;;5034826;28;20252;-80
2022/10/26 06:26:58;;;;;;;8.10;6.40;;;7.90;99.90;;;;;;5033525;28;20209;-80
2022/10/26 06:29:49;;;;;;;8.13;6.63;;;8.10;1.00;;;;;;5032272;28;20217;-80
2022/10/26 06:32:16;;;;;;;10.27;6.70;;;8.00;1.00;;;;;;5033160;28;20261;-78
2022/10/26 06:34:48;;;;;;;10.60;7.60;;;9.00;1.00;;;;;;5034492;28;20197;-76
2022/10/26 06:37:13;;;;;;;9.17;6.90;;;8.00;1.00;;;;;;5031360;28;20190;-77
2022/10/26 06:39:44;;;;;;;11.23;6.93;;;8.00;67.30;;;;;;5035311;28;21062;-78
2022/10/26 06:42:10;;;;;;;9.30;6.60;;;8.10;99.90;;;;;;5034955;28;20187;-77
2022/10/26 06:44:36;;;;;;;8.13;6.20;;;8.20;99.90;;;;;;5031836;28;20199;-78
2022/10/26 06:47:15;;;;;;;9.47;6.60;;;8.20;1.00;;;;;;5017613;28;20269;-78
2022/10/26 06:50:00;;;;;;;8.27;6.93;;;8.40;1.00;;;;;;5034502;28;20192;-76
2022/10/26 06:52:36;;;;;;;8.83;5.97;;;8.40;99.90;;;;;;5030412;28;20206;-79
2022/10/26 06:55:03;;;;;;;7.90;5.93;;;8.70;99.90;;;;;;5032881;28;20209;-77
2022/10/26 06:57:37;;;;;;;8.40;6.20;;;8.70;99.90;;;;;;5033729;28;20799;-79
2022/10/26 07:00:04;;;;;;;7.33;5.80;;;8.90;99.90;;;;;;5031731;28;20653;-77
2022/10/26 07:02:30;;;;;;;7.67;6.30;;;8.90;99.90;;;;;;5050494;28;20202;-77
2022/10/26 07:04:55;;;;;;;9.63;6.87;;;10.00;1.00;;;;;;5033955;28;20571;-77
2022/10/26 07:07:24;;;;;;;9.47;7.20;;;9.30;1.00;;;;;;5032839;28;20183;-76
2022/10/26 07:09:50;;;;;;;9.40;6.93;;;9.00;99.90;;;;;;5031243;28;20233;-76
2022/10/26 07:12:16;;;;;;;9.33;6.70;;;9.00;1.00;;;;;;5029161;28;20750;-77
2022/10/26 07:14:41;;;;;;;10.50;7.07;;;9.20;1.00;;;;;;5033276;28;20472;-78
2022/10/26 07:17:08;;;;;;;8.63;6.47;;;10.10;1.00;;;;;;5032084;28;20187;-77
2022/10/26 07:19:34;;;;;;;8.70;6.77;;;9.00;1.00;;;;;;5031101;28;20233;-78
2022/10/26 07:22:00;;;;;;;8.37;6.80;;;8.70;1.00;;;;;;5034762;28;20186;-78
2022/10/26 07:24:29;;;;;;;8.47;6.47;;;9.40;1.00;;;;;;5033704;28;20597;-78
2022/10/26 07:26:55;;;;;;;6.83;5.70;;;9.70;1.00;;;;;;5033034;28;20226;-77
2022/10/26 07:29:21;;;;;;;9.03;6.17;;;10.20;1.00;;;;;;5031996;28;20206;-77
2022/10/26 07:31:47;;;;;;;7.27;6.07;;;9.60;1.00;;;;;;5032911;28;20179;-78
2022/10/26 07:34:13;;;;;;;5.83;5.23;;;9.20;1.00;;;;;;5016124;28;20701;-78
2022/10/26 07:36:38;;;;;;;7.33;5.40;;;9.50;1.00;;;;;;5031168;28;20221;-77
2022/10/26 07:39:05;;;;;;;6.93;5.10;;;9.30;1.00;;;;;;5030538;28;20191;-76
2022/10/26 07:41:31;;;;;;;8.43;6.63;;;9.30;1.00;;;;;;5033968;28;20269;-78
2022/10/26 07:43:57;;;;;;;8.33;6.10;;;9.50;1.00;;;;;;5030508;28;20201;-77
2022/10/26 07:46:23;;;;;;;7.77;5.47;;;9.60;1.00;;;;;;5034094;28;20573;-78
2022/10/26 07:48:49;;;;;;;9.53;6.43;;;9.80;99.90;;;;;;5032689;28;20218;-77
2022/10/26 07:51:15;;;;;;;8.43;5.50;;;9.80;99.90;;;;;;5030926;28;20557;-78
2022/10/26 07:53:40;;;;;;;8.53;5.70;;;9.90;99.90;;;;;;5036899;28;20199;-77
2022/10/26 07:56:07;;;;;;;8.63;5.73;;;9.90;99.90;;;;;;5032286;28;20206;-79
2022/10/26 07:58:33;;;;;;;9.07;6.27;;;10.00;1.00;;;;;;5034336;28;20223;-77
2022/10/26 08:01:06;;;;;;;7.80;6.23;;;10.00;2.10;;;;;;5033942;28;20699;-78
2022/10/26 08:03:33;;;;;;;7.70;5.67;;;10.20;93.10;;;;;;5035910;28;20232;-85
2022/10/26 08:05:58;;;;;;;10.03;6.80;;;10.10;99.90;;;;;;5034360;28;20289;-76
2022/10/26 08:08:24;;;;;;;8.40;6.37;;;10.20;1.00;;;;;;5033582;28;20305;-77
2022/10/26 08:10:51;;;;;;;7.93;6.27;;;10.40;94.20;;;;;;5035125;28;20273;-78
2022/10/26 08:13:16;;;;;;;10.10;7.37;;;10.30;99.90;;;;;;5035679;28;20341;-77
2022/10/26 08:15:42;;;;;;;11.03;7.30;;;11.40;99.90;;;;;;5032985;28;20621;-77
2022/10/26 08:18:07;;;;;;;10.67;6.90;;;10.80;1.00;;;;;;5030778;28;20276;-77
2022/10/26 08:20:33;;;;;;;9.07;6.83;;;10.80;1.00;;;;;;5038020;28;20186;-77
2022/10/26 08:23:00;;;;;;;9.30;6.33;;;10.70;1.00;;;;;;5035479;28;20329;-77
2022/10/26 08:25:26;;;;;;;7.40;6.67;;;10.70;99.90;;;;;;5035081;28;20248;-77
2022/10/26 08:27:53;;;;;;;8.23;7.00;;;10.80;18.40;;;;;;5036762;28;20220;-78
2022/10/26 08:30:18;;;;;;;7.40;6.30;;;10.90;99.90;;;;;;5035029;28;20483;-79
2022/10/26 08:32:44;;;;;;;8.50;6.70;;;11.10;99.90;;;;;;5037223;28;20666;-78
2022/10/26 08:35:09;;;;;;;8.80;5.90;;;11.20;1.00;;;;;;5035213;28;20295;-78
2022/10/26 08:37:35;;;;;;;8.68;6.05;;;11.40;99.90;;;;;;5032294;28;20670;-77
2022/10/26 08:40:03;;;;;;;7.65;5.75;;;11.50;1.00;;;;;;5038088;28;20190;-84
2022/10/26 08:42:38;;;;;;;6.80;5.00;;;11.70;1.00;;;;;;5028503;28;20200;-85
2022/10/26 08:45:16;;;;;;;8.70;4.78;;;11.80;99.90;;;;;;5030801;28;20202;-83
2022/10/26 08:47:51;;;;;;;8.10;4.47;;;11.90;1.00;;;;;;5053246;28;20202;-83
2022/10/26 08:50:25;;;;;;;7.80;3.53;;;11.90;99.90;;;;;;5025078;28;20182;-82
2022/10/26 08:53:01;;;;;;;7.00;3.78;;;12.10;99.90;;;;;;5038240;28;20710;-81
2022/10/26 08:55:37;;;;;;;5.53;4.00;;;12.30;99.90;;;;;;5026916;28;20256;-83
2022/10/26 08:58:06;;;;;;;6.13;3.70;;;12.30;1.00;;;;;;5053459;28;20178;-81
2022/10/26 09:00:32;;;;;;;6.55;3.88;;;12.40;1.00;;;;;;5030220;28;20624;-80
2022/10/26 09:02:58;;;;;;;4.90;3.00;;;12.50;1.00;;;;;;5028198;28;20190;-80
2022/10/26 09:05:37;;;;;;;6.10;3.80;;;12.60;1.00;;;;;;5030529;28;20210;-80
2022/10/26 09:08:30;;;;;;;4.63;3.60;;;12.70;1.00;;;;;;5037769;28;20341;-80
2022/10/26 09:11:31;;;;;;;5.90;3.63;;;12.90;1.00;;;;;;5025920;28;20187;-80
2022/10/26 09:14:06;;;;;;;6.82;3.30;;;13.00;99.90;;;;;;5022214;28;20179;-80
2022/10/26 09:16:39;;;;;;;9.65;3.63;;;13.20;99.90;;;;;;5050357;28;20260;-80
2022/10/26 09:19:28;;;;;;;4.10;3.13;;;13.50;99.90;;;;;;5030927;28;20193;-80
2022/10/26 09:22:52;;;;;;;4.60;3.15;;;13.60;99.90;;;;;;4996335;28;20198;-79
2022/10/26 09:25:19;;;;;;;4.22;3.17;;;13.70;99.90;;;;;;4958895;28;20255;-80
2022/10/26 09:27:52;;;;;;;4.63;3.22;;;14.00;99.90;;;;;;4958522;28;20259;-80
2022/10/26 09:30:20;;;;;;;3.97;2.75;;;14.00;99.90;;;;;;5024799;28;20194;-81
2022/10/26 09:32:48;;;;;;;3.67;2.65;;;14.10;99.90;;;;;;5034824;28;20556;-80
2022/10/26 09:35:41;;;;;;;3.67;2.83;;;14.30;99.90;;;;;;5032924;28;20210;-80
2022/10/26 09:38:20;;;;;;;3.90;2.75;;;14.40;99.90;;;;;;5034036;28;20183;-81
2022/10/26 09:41:02;;;;;;;4.00;2.60;;;14.60;99.90;;;;;;5037901;28;20178;-80
2022/10/26 09:43:37;;;;;;;2.92;2.30;;;14.70;99.90;;;;;;5036924;28;20188;-80
2022/10/26 09:46:02;;;;;;;3.67;2.40;;;14.90;99.90;;;;;;5036224;28;20199;-80
2022/10/26 09:48:32;;;;;;;4.60;2.30;;;15.00;94.40;;;;;;5036159;28;20485;-85
2022/10/26 09:50:59;;;;;;;4.47;2.42;;;15.20;69.40;;;;;;5035702;28;20225;-80
2022/10/26 09:53:25;;;;;;;6.07;2.72;;;15.10;60.00;;;;;;5031183;28;20194;-79
2022/10/26 09:55:59;;;;;;;5.05;2.50;;;15.30;46.70;;;;;;5020127;28;20205;-80
2022/10/26 09:58:30;;;;;;;3.67;2.20;;;15.30;37.20;;;;;;5034051;28;20649;-80
2022/10/26 10:00:56;;;;;;;4.55;2.28;;;15.30;26.90;;;;;;5034161;28;20243;-78
2022/10/26 10:03:27;;;;;;;6.28;2.95;;;15.40;22.10;;;;;;5034124;28;20191;-77
2022/10/26 10:06:12;;;;;;;4.30;2.53;;;15.30;20.30;;;;;;5033133;28;20210;-78
2022/10/26 10:08:38;;;;;;;3.25;2.28;;;15.40;18.00;;;;;;5030745;28;20257;-77
2022/10/26 10:11:14;;;;;;;3.08;2.28;;;15.60;7.30;;;;;;5033419;28;20601;-77
2022/10/26 10:13:43;;;;;;;4.28;2.03;;;15.70;7.10;;;;;;5033135;28;20253;-78
2022/10/26 10:16:20;;;;;;;6.95;2.22;;;15.80;2.10;;;;;;5033811;28;20203;-86
2022/10/26 10:18:53;;;;;;;4.85;2.30;;;15.70;1.00;;;;;;5051463;28;20182;-79
2022/10/26 10:21:19;;;;;;;6.13;2.22;;;15.80;1.00;;;;;;5032014;28;20235;-77
2022/10/26 10:23:54;;;;;;;3.95;2.88;;;15.90;1.00;;;;;;5026854;28;20179;-78
2022/10/26 10:26:19;;;;;;;3.13;2.38;;;16.00;1.00;;;;;;5020037;28;20202;-76
2022/10/26 10:28:57;;;;;;;4.97;2.47;;;15.90;1.00;;;;;;5028749;28;20206;-77
2022/10/26 10:31:29;;;;;;;3.42;2.30;;;16.00;1.00;;;;;;5024719;28;20175;-77
2022/10/26 10:33:54;;;;;;;4.57;2.28;;;15.80;1.00;;;;;;5021759;28;20206;-77
2022/10/26 10:36:28;;;;;;;7.00;2.78;;;15.80;1.00;;;;;;5019445;28;20237;-77
2022/10/26 10:38:54;;;;;;;4.47;2.40;;;15.80;1.00;;;;;;5029823;28;20265;-77
2022/10/26 10:41:30;;;;;;;4.90;2.70;;;15.90;1.00;;;;;;5036565;28;20271;-77
2022/10/26 10:44:30;;;;;;;2.97;2.55;;;15.90;1.00;;;;;;5024992;28;20178;-79
2022/10/26 10:47:04;;;;;;;3.03;2.50;;;16.20;1.00;;;;;;5013193;28;20189;-77
2022/10/26 10:49:30;;;;;;;5.20;2.78;;;16.20;1.00;;;;;;5027217;28;20296;-77
2022/10/26 10:51:57;;;;;;;3.72;2.75;;;16.20;1.00;;;;;;5028400;28;20182;-78
2022/10/26 10:54:34;;;;;;;3.85;2.58;;;16.20;1.00;;;;;;5023173;28;20206;-77
2022/10/26 10:57:18;;;;;;;4.00;2.80;;;16.20;1.00;;;;;;5026243;28;20731;-77
2022/10/26 11:00:01;;;;;;;3.25;2.53;;;16.30;1.00;;;;;;5025290;28;20496;-76
2022/10/26 11:02:53;;;;;;;5.68;3.25;;;16.50;1.00;;;;;;5023639;28;20186;-77
2022/10/26 11:05:42;;;;;;;5.18;3.03;;;16.50;1.00;;;;;;5011230;28;20264;-78
2022/10/26 11:08:17;;;;;;;3.38;2.65;;;16.50;1.00;;;;;;5029376;28;20584;-78
2022/10/26 11:10:56;;;;;;;7.07;3.20;;;16.40;1.00;;;;;;5024330;28;20210;-77
2022/10/26 11:14:01;;;;;;;7.32;3.15;;;16.30;1.00;;;;;;5022543;28;20178;-78
2022/10/26 11:16:32;;;;;;;4.00;2.58;;;16.10;1.00;;;;;;5024090;28;20245;-78
2022/10/26 11:19:12;;;;;;;5.13;3.15;;;16.20;1.00;;;;;;5040409;28;20186;-77
2022/10/26 11:21:37;;;;;;;4.75;2.95;;;16.20;1.00;;;;;;5025219;28;20201;-78
2022/10/26 11:24:25;;;;;;;4.15;2.45;;;16.20;1.00;;;;;;5022164;28;20565;-78
2022/10/26 11:26:59;;;;;;;6.32;3.03;;;16.20;1.00;;;;;;5024117;28;20655;-78
2022/10/26 11:29:51;;;;;;;4.70;2.85;;;16.30;1.00;;;;;;5031687;28;20685;-77
2022/10/26 11:32:19;;;;;;;6.35;3.13;;;16.30;1.00;;;;;;5038701;28;20732;-77
2022/10/26 11:34:57;;;;;;;5.03;3.08;;;16.50;1.00;;;;;;5033324;28;20709;-79
2022/10/26 11:37:51;;;;;;;6.88;3.33;;;16.70;1.00;;;;;;5037452;28;20182;-79
2022/10/26 11:40:37;;;;;;;6.07;3.08;;;16.70;1.00;;;;;;5022365;28;20244;-79
2022/10/26 11:43:15;;;;;;;5.30;3.10;;;16.90;1.00;;;;;;5032300;28;20232;-79
2022/10/26 11:45:44;;;;;;;4.53;2.97;;;16.80;1.00;;;;;;5037023;28;20202;-79
2022/10/26 11:48:27;;;;;;;4.85;2.60;;;17.00;1.00;;;;;;5028830;28;20687;-76
2022/10/26 11:50:57;;;;;;;4.93;2.90;;;17.10;1.00;;;;;;5030117;28;20183;-77
2022/10/26 11:53:34;;;;;;;5.05;2.95;;;17.20;1.00;;;;;;5026318;28;20214;-77
2022/10/26 11:56:02;;;;;;;7.85;3.05;;;17.20;1.00;;;;;;5025433;28;20199;-78
2022/10/26 11:58:30;;;;;;;6.22;3.10;;;17.00;1.00;;;;;;5033472;28;20654;-78
2022/10/26 12:01:01;;;;;;;4.47;2.85;;;16.90;1.00;;;;;;5028461;28;20601;-79
2022/10/26 12:03:39;;;;;;;4.45;3.10;;;16.70;1.00;;;;;;5034320;28;20659;-78
2022/10/26 12:06:05;;;;;;;4.65;2.90;;;16.70;1.00;;;;;;5037579;28;20207;-78
2022/10/26 12:08:44;;;;;;;5.20;3.03;;;16.80;1.00;;;;;;5033723;28;20562;-79
2022/10/26 12:11:33;;;;;;;4.28;2.83;;;16.80;1.00;;;;;;5030633;28;20178;-81
2022/10/26 12:14:17;;;;;;;4.35;2.35;;;16.80;1.00;;;;;;5045519;28;20185;-79
2022/10/26 12:16:55;;;;;;;6.22;3.15;;;17.00;1.00;;;;;;5041783;28;20180;-79
2022/10/26 12:19:39;;;;;;;4.63;2.58;;;17.10;1.00;;;;;;5027534;28;20288;-82
2022/10/26 12:22:10;;;;;;;4.78;2.95;;;17.30;1.00;;;;;;5030307;28;20185;-80
2022/10/26 12:24:46;;;;;;;4.00;2.40;;;17.30;1.00;;;;;;5026857;28;20607;-79
2022/10/26 12:27:38;;;;;;;5.85;2.60;;;17.10;1.00;;;;;;5026098;28;20210;-81
2022/10/26 12:30:28;;;;;;;4.72;2.70;;;17.20;1.00;;;;;;5043377;28;20261;-80
2022/10/26 12:32:59;;;;;;;3.88;2.88;;;17.30;1.00;;;;;;5027012;28;20220;-80
2022/10/26 12:35:41;;;;;;;4.78;2.95;;;17.30;1.00;;;;;;5026533;28;20206;-80
2022/10/26 12:38:25;;;;;;;3.88;2.78;;;17.10;1.00;;;;;;5034389;28;20216;-80
2022/10/26 12:41:18;;;;;;;5.25;3.15;;;17.00;1.00;;;;;;5027200;28;20191;-83
2022/10/26 12:43:44;;;;;;;5.65;2.97;;;17.00;1.00;;;;;;5028840;28;20198;-81
2022/10/26 12:46:12;;;;;;;4.50;3.20;;;17.10;1.00;;;;;;5031380;28;20209;-82
2022/10/26 12:48:52;;;;;;;6.25;3.05;;;17.10;1.00;;;;;;5045234;28;20268;-79
2022/10/26 12:51:20;;;;;;;6.57;3.30;;;17.10;1.00;;;;;;5026500;28;20181;-80
2022/10/26 12:54:15;;;;;;;5.55;3.22;;;17.10;1.00;;;;;;5039676;28;20950;-82
2022/10/26 12:57:26;;;;;;;5.18;3.40;;;17.00;1.00;;;;;;5033563;28;20239;-79
2022/10/26 13:00:03;;;;;;;7.28;3.55;;;17.00;1.00;;;;;;4944205;29;20563;-78
2022/10/26 13:02:52;;;;;;;4.50;3.35;;;17.10;1.00;;;;;;4945617;29;20704;-80
2022/10/26 13:06:12;;;;;;;4.93;3.00;;;17.10;1.00;;;;;;5017188;28;20241;-81
2022/10/26 13:08:44;;;;;;;4.53;3.25;;;17.10;1.00;;;;;;4944427;29;20221;-78
2022/10/26 13:11:23;;;;;;;6.18;3.25;;;17.20;1.00;;;;;;5012164;28;20281;-80
2022/10/26 13:13:54;;;;;;;5.53;3.38;;;17.20;1.00;;;;;;5026507;28;20458;-80
2022/10/26 13:16:23;;;;;;;3.92;2.65;;;17.30;1.00;;;;;;5029217;28;20907;-82
2022/10/26 13:18:48;;;;;;;5.00;3.78;;;17.40;1.00;;;;;;5026289;28;20210;-79
2022/10/26 13:21:17;;;;;;;4.93;3.05;;;17.40;1.00;;;;;;5033044;28;20293;-79
2022/10/26 13:24:04;;;;;;;4.43;3.10;;;17.50;1.00;;;;;;5031049;28;20193;-80